Latest Weather Observations for Cummins Airport

IDS60801

Issued at 11:01 pm CST Monday 6 July 2015 (issued every 30 minutes, with the page automatically refreshed every 10 minutes)

About weather observations | Map of weather stations | Latest weather observations for SA | Other Formats
Station Details ID: 018217 Name: CUMMINS AERO Lat: -34.25 Lon: 135.71 Height: 60.11 m
Data from the previous 72 hours. | See also: Recent months at Cummins Airport
Date/Time
CST
Temp
°C
App
Temp
°C
Dew
Point
Rel
Hum
%
Delta-T
°C
Wind Press
QNH
hPa
Press
MSL
hPa
Rain
since 9 am
mm
Dir
 
Spd
km/h
Gust
km/h
Spd
kts
Gust
kts
06/11:00pm 10.4 - - - - W 11 13 6 7 1021.7 1021.8 0.6
06/10:30pm 10.2 - - - - SW 11 11 6 6 1021.6 1021.7 0.6
06/10:00pm 10.7 - - - - SW 13 15 7 8 1021.4 1021.5 0.6
06/09:30pm 10.6 - - - - WSW 9 13 5 7 1021.4 1021.5 0.6
06/09:00pm 10.9 - - - - WSW 13 19 7 10 1021.1 1021.2 0.6
06/08:30pm 10.9 - - - - WSW 11 15 6 8 1020.8 1020.9 0.4
06/08:00pm 11.0 - - - - WSW 19 22 10 12 1020.7 1020.8 0.2
06/07:30pm 10.5 - - - - SSW 2 9 1 5 1020.4 1020.5 0.0
06/07:00pm 10.2 - - - - CALM 0 2 0 1 1020.0 1020.1 0.0
06/06:30pm 9.7 - - - - NW 2 7 1 4 1019.7 1019.8 0.0
06/06:00pm 10.2 - - - - WSW 9 11 5 6 1019.3 1019.4 0.0
06/05:30pm 11.6 - - - - WSW 9 17 5 9 1019.1 1019.2 0.0
06/05:00pm 12.8 - - - - SW 13 17 7 9 1018.8 1018.9 0.0
06/04:30pm 13.3 - - - - SW 20 28 11 15 1018.6 1018.7 0.0
06/04:00pm 14.6 - - - - W 26 32 14 17 1018.4 1018.5 0.0
06/03:30pm 15.0 - - - - W 28 35 15 19 1018.2 1018.3 0.0
06/03:00pm 15.0 - - - - W 22 30 12 16 1018.0 1018.1 0.0
06/02:30pm 15.0 - - - - W 28 35 15 19 1018.0 1018.1 0.0
06/02:00pm 14.8 - - - - W 26 37 14 20 1017.9 1018.0 0.0
06/01:30pm 14.8 - - - - W 24 37 13 20 1018.0 1018.1 0.0
06/01:00pm 14.4 - - - - W 26 35 14 19 1018.1 1018.2 0.0
06/12:30pm 14.4 - - - - WSW 26 33 14 18 1018.4 1018.5 0.0
06/12:00pm 14.2 - - - - WSW 33 44 18 24 1018.6 1018.7 0.0
06/11:30am 14.2 - - - - WSW 24 35 13 19 1018.6 1018.7 0.0
06/11:00am 13.8 - - - - W 22 32 12 17 1018.7 1018.8 0.0
06/10:30am 13.1 - - - - W 15 19 8 10 1018.8 1018.9 0.0
06/10:00am 12.7 - - - - WSW 19 28 10 15 1018.8 1018.9 0.0
06/09:30am 12.0 - - - - NW 6 7 3 4 1018.5 1018.6 0.0
06/09:00am 10.6 - - - - W 9 20 5 11 1018.2 1018.3 3.4
06/08:30am 9.3 - - - - NNW 7 13 4 7 1017.7 1017.8 3.0
06/08:00am 8.7 - - - - NW 7 9 4 5 1017.3 1017.4 3.0
06/07:30am 9.2 - - - - W 15 20 8 11 1017.1 1017.2 3.0
06/07:00am 6.3 - - - - CALM 0 0 0 0 1016.7 1016.8 2.8
06/06:30am 5.1 - - - - N 7 9 4 5 1016.4 1016.4 2.8
06/06:00am 6.5 - - - - N 9 9 5 5 1016.4 1016.4 2.8
06/05:30am 7.3 - - - - N 7 9 4 5 1016.3 1016.3 2.8
06/05:00am 7.5 - - - - N 4 7 2 4 1016.4 1016.4 2.8
06/04:30am 9.7 - - - - W 9 11 5 6 1016.4 1016.4 2.8
06/04:00am 11.0 - - - - WSW 15 20 8 11 1016.4 1016.4 2.8
06/03:30am 11.3 - - - - WSW 13 17 7 9 1016.4 1016.4 2.8
06/03:00am 10.2 - - - - W 9 13 5 7 1016.2 1016.2 2.8
06/02:30am 11.1 - - - - WNW 15 19 8 10 1016.1 1016.1 2.4
06/02:00am 9.5 - - - - NNW 6 7 3 4 1015.9 1015.9 0.0
06/01:30am 9.9 - - - - W 6 17 3 9 1015.9 1015.9 0.0
06/01:00am 9.7 - - - - N 11 15 6 8 1015.9 1015.9 0.0
06/12:30am 8.8 - - - - N 9 11 5 6 1016.0 1016.0 0.0
06/12:00am 9.3 - - - - N 9 13 5 7 1016.0 1016.0 0.0
 
Date/Time
CST
Temp
°C
App
Temp
°C
Dew
Point
Rel
Hum
%
Delta-T
°C
Wind Press
QNH
hPa
Press
MSL
hPa
Rain
since 9 am
mm
Dir
 
Spd
km/h
Gust
km/h
Spd
kts
Gust
kts
05/11:30pm 9.6 - - - - N 11 13 6 7 1016.1 1016.1 0.0
05/11:00pm 9.2 - - - - N 9 11 5 6 1016.2 1016.2 0.0
05/10:30pm 9.2 - - - - N 7 11 4 6 1016.0 1016.0 0.0
05/10:00pm 9.8 - - - - NNE 11 13 6 7 1016.1 1016.1 0.0
05/09:30pm 10.9 - - - - NNW 6 7 3 4 1016.5 1016.5 0.0
05/09:00pm 11.3 - - - - N 6 9 3 5 1016.4 1016.4 0.0
05/08:30pm 11.6 - - - - N 13 19 7 10 1016.1 1016.1 0.0
05/08:00pm 11.5 - - - - N 11 13 6 7 1016.5 1016.5 0.0
05/07:30pm 12.4 - - - - NW 13 15 7 8 1016.4 1016.4 0.0
05/07:00pm 12.6 - - - - NNW 13 19 7 10 1016.2 1016.2 0.0
05/06:30pm 12.5 - - - - NNW 11 17 6 9 1016.3 1016.3 0.0
05/06:00pm 13.1 - - - - WNW 13 15 7 8 1016.1 1016.1 0.0
05/05:30pm 13.5 - - - - WNW 15 20 8 11 1016.3 1016.3 0.0
05/05:00pm 14.3 - - - - WNW 17 24 9 13 1016.0 1016.0 0.0
05/04:30pm 15.2 - - - - NW 19 26 10 14 1015.9 1015.9 0.0
05/04:00pm 15.8 - - - - WNW 26 39 14 21 1015.9 1015.9 0.0
05/03:30pm 17.4 - - - - NW 19 26 10 14 1015.9 1015.9 0.0
05/03:00pm 16.9 - - - - WNW 19 26 10 14 1016.0 1016.0 0.0
05/02:30pm 18.3 - - - - NNW 19 26 10 14 1016.1 1016.1 0.0
05/02:00pm 16.9 - - - - NW 22 32 12 17 1016.2 1016.2 0.0
05/01:30pm 17.7 - - - - NNW 22 33 12 18 1016.6 1016.6 0.0
05/01:00pm 17.4 - - - - NNW 26 35 14 19 1017.1 1017.2 0.0
05/12:30pm 17.2 - - - - NNW 24 35 13 19 1017.6 1017.7 0.0
05/12:00pm 15.7 - - - - NNW 28 35 15 19 1018.1 1018.2 0.0
05/11:30am 14.7 - - - - NNW 20 30 11 16 1018.7 1018.8 0.0
05/11:00am 13.5 - - - - NNW 20 28 11 15 1019.1 1019.2 0.0
05/10:30am 12.2 - - - - NNW 20 30 11 16 1019.4 1019.5 0.0
05/10:00am 11.2 - - - - N 17 22 9 12 1019.5 1019.6 0.0
05/09:30am 9.6 - - - - N 17 20 9 11 1019.6 1019.7 0.0
05/09:00am 8.4 - - - - N 15 20 8 11 1019.8 1019.9 0.0
05/08:30am 6.6 - - - - NNE 13 15 7 8 1019.7 1019.8 0.0
05/08:00am 4.8 - - - - NNE 11 15 6 8 1019.6 1019.7 0.0
05/07:30am 4.6 - - - - N 15 17 8 9 1019.6 1019.7 0.0
05/07:00am 3.5 - - - - NNE 11 13 6 7 1019.5 1019.6 0.0
05/06:30am 4.1 - - - - NNE 13 15 7 8 1019.4 1019.5 0.0
05/06:00am 3.3 - - - - NNE 13 15 7 8 1019.4 1019.5 0.0
05/05:30am 3.3 - - - - NNE 11 13 6 7 1019.4 1019.5 0.0
05/05:00am 3.8 - - - - NNE 13 15 7 8 1019.3 1019.4 0.0
05/04:30am 3.8 - - - - NE 13 13 7 7 1019.3 1019.4 0.0
05/04:00am 3.7 - - - - NE 11 13 6 7 1019.6 1019.7 0.0
05/03:30am 4.5 - - - - NNE 9 11 5 6 1019.7 1019.8 0.0
05/03:00am 5.1 - - - - NNE 7 9 4 5 1019.8 1019.9 0.0
05/02:30am 5.5 - - - - NNE 11 13 6 7 1019.9 1020.0 0.0
05/02:00am 5.5 - - - - NE 11 13 6 7 1019.8 1019.9 0.0
05/01:30am 5.5 - - - - NNE 11 13 6 7 1019.8 1019.9 0.0
05/01:00am 6.1 - - - - NNE 13 15 7 8 1020.1 1020.2 0.0
05/12:30am 6.6 - - - - NE 13 17 7 9 1020.2 1020.3 0.0
05/12:00am 5.8 - - - - NE 13 15 7 8 1020.6 1020.7 0.0
 
Date/Time
CST
Temp
°C
App
Temp
°C
Dew
Point
Rel
Hum
%
Delta-T
°C
Wind Press
QNH
hPa
Press
MSL
hPa
Rain
since 9 am
mm
Dir
 
Spd
km/h
Gust
km/h
Spd
kts
Gust
kts
04/11:30pm 5.9 - - - - NE 13 15 7 8 1020.8 1020.9 0.0
04/11:00pm 5.8 - - - - NE 13 15 7 8 1021.1 1021.2 0.0
04/10:30pm 5.7 - - - - NE 11 13 6 7 1021.3 1021.4 0.0
04/10:00pm 5.7 - - - - NE 11 13 6 7 1021.4 1021.5 0.0
04/09:30pm 5.6 - - - - NE 9 11 5 6 1021.4 1021.5 0.0
04/09:00pm 5.2 - - - - NE 7 9 4 5 1021.4 1021.5 0.0
04/08:30pm 6.1 - - - - NE 9 11 5 6 1021.4 1021.5 0.0
04/08:00pm 6.8 - - - - NE 9 11 5 6 1021.3 1021.4 0.0
04/07:30pm 6.0 - - - - NE 6 9 3 5 1021.4 1021.5 0.0
04/07:00pm 6.8 - - - - CALM 0 0 0 0 1021.6 1021.7 0.0
04/06:30pm 8.5 - - - - WNW 2 6 1 3 1021.4 1021.5 0.0
04/06:00pm 10.2 - - - - WNW 7 9 4 5 1021.4 1021.5 0.0
04/05:30pm 11.7 - - - - WNW 9 11 5 6 1021.5 1021.6 0.0
04/05:00pm 13.5 - - - - WNW 17 24 9 13 1021.4 1021.5 0.0
04/04:30pm 15.1 - - - - WNW 15 20 8 11 1021.3 1021.4 0.0
04/04:00pm 15.8 - - - - WNW 20 26 11 14 1021.1 1021.2 0.0
04/03:30pm 16.5 - - - - WNW 19 28 10 15 1021.0 1021.1 0.0
04/03:00pm 17.0 - - - - WNW 20 28 11 15 1021.0 1021.1 0.0
04/02:30pm 17.1 - - - - WNW 20 30 11 16 1021.0 1021.1 0.0
04/02:00pm 17.2 - - - - NW 20 30 11 16 1021.2 1021.3 0.0
04/01:30pm 17.4 - - - - NW 19 28 10 15 1021.4 1021.5 0.0
04/01:00pm 16.6 - - - - NW 17 26 9 14 1022.0 1022.1 0.0
04/12:30pm 16.0 - - - - NNW 13 20 7 11 1022.5 1022.6 0.0
04/12:00pm 15.4 - - - - N 11 19 6 10 1022.8 1022.9 0.0
04/11:30am 14.8 - - - - N 11 17 6 9 1023.4 1023.5 0.0
04/11:00am 13.9 - - - - N 13 17 7 9 1023.9 1024.0 0.0
04/10:30am 12.7 - - - - NNE 9 11 5 6 1024.1 1024.2 0.0
04/10:00am 10.2 - - - - ENE 4 7 2 4 1024.3 1024.4 0.0
04/09:30am 10.3 - - - - N 9 11 5 6 1024.2 1024.3 0.0
04/09:00am 8.7 - - - - NNE 9 13 5 7 1024.0 1024.1 0.0
04/08:30am 6.6 - - - - NNE 11 13 6 7 1023.7 1023.8 0.0
04/08:00am 6.6 - - - - NNE 13 15 7 8 1023.6 1023.7 0.0
04/07:30am 6.9 - - - - NE 13 15 7 8 1023.4 1023.5 0.0
04/07:00am 6.9 - - - - NE 11 13 6 7 1023.2 1023.3 0.0
04/06:30am 7.0 - - - - NNE 9 11 5 6 1023.0 1023.1 0.0
04/06:00am 7.5 - - - - NNE 9 13 5 7 1022.9 1023.0 0.0
04/05:30am 6.2 - - - - NNE 9 11 5 6 1022.8 1022.9 0.0
04/05:00am 4.8 - - - - NNE 7 9 4 5 1022.9 1023.0 0.0
04/04:30am 4.3 - - - - NE 9 9 5 5 1022.9 1023.0 0.0
04/04:00am 2.7 - - - - NE 6 9 3 5 1023.0 1023.1 0.0
04/03:30am 3.0 - - - - CALM 0 0 0 0 1023.2 1023.3 0.0
04/03:00am 3.8 - - - - CALM 0 0 0 0 1023.5 1023.6 0.0
04/02:30am 4.3 - - - - CALM 0 0 0 0 1023.5 1023.6 0.0
04/02:00am 3.8 - - - - CALM 0 0 0 0 1023.6 1023.7 0.0
04/01:30am 3.2 - - - - CALM 0 0 0 0 1023.8 1023.9 0.0
04/01:00am 4.1 - - - - SSE 2 7 1 4 1023.9 1024.0 0.0
04/12:30am 3.9 - - - - NNE 4 7 2 4 1024.2 1024.3 0.0
04/12:00am 5.5 - - - - N 9 11 5 6 1024.3 1024.4 0.0
 
Date/Time
CST
Temp
°C
App
Temp
°C
Dew
Point
Rel
Hum
%
Delta-T
°C
Wind Press
QNH
hPa
Press
MSL
hPa
Rain
since 9 am
mm
Dir
 
Spd
km/h
Gust
km/h
Spd
kts
Gust
kts
03/11:30pm 3.9 - - - - ENE 7 9 4 5 1024.6 1024.7 0.0

Other Formats:

Comma delimited format used in spreadsheet applications
http://www.bom.gov.au/fwo/IDS60801/IDS60801.95663.axf

JavaScript Object Notation format (JSON) in row-major order
http://www.bom.gov.au/fwo/IDS60801/IDS60801.95663.json